Time;durP1;ratioP1;P1;durP2;ratioP2;P2;SDS_P1;SDS_P2;PMS_P1;PMS_P2;Temp;Humidity;BMP_temperature;BMP_pressure;BME280_temperature;BME280_humidity;BME280_pressure;Samples;Min_cycle;Max_cycle;Signal;HPM_P1;HPM_P2
2021/11/09 00:03:33;;;;;;;30.42;15.20;;;;;;;6.96;87.47;101420.00;8714952;33;20457;-74
2021/11/09 00:08:42;;;;;;;31.75;15.57;;;;;;;6.91;87.41;101419.34;8715345;33;20759;-74
2021/11/09 00:13:45;;;;;;;32.50;16.15;;;;;;;6.85;87.17;101425.84;8715996;33;20218;-73
2021/11/09 00:18:49;;;;;;;35.05;15.77;;;;;;;6.80;87.03;101425.19;8718769;33;20376;-73
2021/11/09 00:23:53;;;;;;;30.33;15.18;;;;;;;6.83;87.01;101433.94;8718877;33;20704;-73
2021/11/09 00:28:58;;;;;;;31.20;14.95;;;;;;;6.87;86.90;101437.34;8719108;33;22226;-73
2021/11/09 00:34:01;;;;;;;34.55;15.48;;;;;;;6.91;86.85;101438.94;8718139;33;20928;-73
2021/11/09 00:39:08;;;;;;;31.75;15.43;;;;;;;6.97;86.98;101435.09;8718195;33;20700;-74
2021/11/09 00:44:12;;;;;;;33.33;15.70;;;;;;;6.94;86.48;101436.13;8717880;33;20178;-73
2021/11/09 00:49:15;;;;;;;30.20;14.43;;;;;;;6.98;86.46;101431.47;8718182;33;20271;-74
2021/11/09 00:54:20;;;;;;;32.30;15.80;;;;;;;7.01;85.97;101439.34;8718697;33;20195;-73
2021/11/09 00:59:23;;;;;;;36.60;15.85;;;;;;;7.01;85.82;101428.66;8717621;33;20278;-74
2021/11/09 01:04:27;;;;;;;31.70;15.80;;;;;;;7.02;85.63;101439.28;8716921;33;20211;-73
2021/11/09 01:09:32;;;;;;;33.28;15.45;;;;;;;7.06;86.11;101435.50;8718210;33;20176;-74
2021/11/09 01:14:37;;;;;;;29.20;15.90;;;;;;;7.01;86.14;101429.50;8692276;33;20175;-74
2021/11/09 01:19:40;;;;;;;29.88;16.02;;;;;;;7.00;86.12;101433.13;8717289;33;20187;-74
2021/11/09 01:24:45;;;;;;;30.00;15.63;;;;;;;6.95;85.74;101428.97;8717218;33;20136;-75
2021/11/09 01:29:48;;;;;;;33.45;15.23;;;;;;;6.92;85.76;101426.44;8692492;33;20260;-73
2021/11/09 01:34:51;;;;;;;33.60;16.15;;;;;;;6.94;85.72;101421.88;8716745;33;20148;-75
2021/11/09 01:39:56;;;;;;;34.58;15.60;;;;;;;6.92;85.84;101421.09;8692430;33;20187;-74
2021/11/09 01:44:59;;;;;;;35.85;15.90;;;;;;;6.95;86.25;101404.94;8717229;33;20303;-73
2021/11/09 01:50:05;;;;;;;36.25;15.35;;;;;;;6.90;86.22;101409.63;8717204;33;20258;-74
2021/11/09 01:55:13;;;;;;;28.63;15.23;;;;;;;6.82;86.35;101410.81;8704554;33;20252;-74
2021/11/09 02:00:26;;;;;;;37.38;15.40;;;;;;;6.84;86.85;101419.63;8715983;33;20850;-74
2021/11/09 02:05:30;;;;;;;35.83;16.17;;;;;;;6.83;86.53;101415.25;8691606;33;20206;-74
2021/11/09 02:10:40;;;;;;;30.45;14.80;;;;;;;6.88;86.77;101411.50;8716627;33;20171;-74
2021/11/09 02:15:43;;;;;;;30.67;15.73;;;;;;;6.89;86.92;101427.47;8715795;33;20183;-74
2021/11/09 02:20:52;;;;;;;32.67;15.43;;;;;;;6.89;86.83;101426.59;8679254;33;20194;-74
2021/11/09 02:25:55;;;;;;;35.05;17.38;;;;;;;6.87;86.90;101423.09;8690727;33;21013;-74
2021/11/09 02:30:59;;;;;;;34.78;15.65;;;;;;;6.92;86.85;101424.63;8715946;33;20643;-74
2021/11/09 02:36:05;;;;;;;33.35;17.23;;;;;;;6.88;86.61;101425.72;8715529;33;20248;-74
2021/11/09 02:41:08;;;;;;;32.35;16.50;;;;;;;6.83;86.88;101427.75;8715233;33;20219;-73
2021/11/09 02:51:34;;;;;;;31.77;16.95;;;;;;;6.79;86.65;101420.81;8698113;33;20187;-74
2021/11/09 02:56:43;;;;;;;30.00;13.77;;;;;;;6.79;86.95;101435.00;8714558;33;20743;-74
2021/11/09 03:01:51;;;;;;;26.83;14.35;;;;;;;6.78;86.68;101441.31;8714828;33;20836;-75
2021/11/09 03:06:59;;;;;;;35.90;14.20;;;;;;;6.82;86.52;101440.19;8715231;33;20452;-74
2021/11/09 03:12:04;;;;;;;27.35;13.73;;;;;;;6.87;86.75;101436.47;8715151;33;20241;-74
2021/11/09 03:17:15;;;;;;;26.00;14.32;;;;;;;6.84;86.89;101443.66;8714211;33;20226;-73
2021/11/09 03:44:19;;;;;;;29.02;13.23;;;;;;;6.73;86.20;101466.50;8536268;34;20515;-73
2021/11/09 03:49:25;;;;;;;25.77;13.95;;;;;;;6.72;85.99;101487.00;8685670;33;20672;-74
2021/11/09 03:54:31;;;;;;;30.30;14.43;;;;;;;6.76;85.45;101482.38;8718898;33;21175;-73
2021/11/09 03:59:42;;;;;;;35.80;13.00;;;;;;;6.71;84.36;101482.59;8694107;33;20184;-74
2021/11/09 04:04:49;;;;;;;33.40;13.90;;;;;;;6.63;83.81;101496.28;8719366;33;21072;-73
2021/11/09 04:10:03;;;;;;;25.88;13.25;;;;;;;6.66;83.10;101497.09;8719802;33;20241;-74
2021/11/09 04:20:36;;;;;;;28.20;13.48;;;;;;;6.58;82.81;101490.34;8719197;33;20191;-74
2021/11/09 04:26:15;;;;;;;29.33;12.02;;;;;;;6.59;82.52;101500.06;8718567;33;20433;-73
2021/11/09 04:31:42;;;;;;;31.02;12.95;;;;;;;6.62;82.68;101499.91;8719330;33;20752;-74
2021/11/09 04:53:04;;;;;;;25.95;13.82;;;;;;;6.33;82.50;101495.03;8708876;33;21523;-75
2021/11/09 05:08:54;;;;;;;27.45;12.55;;;;;;;6.24;82.65;101511.50;8717883;33;20534;-73
2021/11/09 05:13:59;;;;;;;29.40;12.02;;;;;;;6.20;82.90;101516.09;8717160;33;20137;-74
2021/11/09 05:19:02;;;;;;;33.15;12.95;;;;;;;6.12;82.96;101512.91;8718106;33;20232;-73
2021/11/09 05:24:07;;;;;;;26.77;11.63;;;;;;;6.07;83.35;101513.09;8716392;33;20889;-73
2021/11/09 05:29:13;;;;;;;27.83;12.45;;;;;;;6.04;83.43;101521.25;8716006;33;20188;-74
2021/11/09 05:34:16;;;;;;;22.95;11.90;;;;;;;6.08;83.70;101521.97;8716267;33;20267;-75
2021/11/09 05:39:21;;;;;;;34.03;12.65;;;;;;;6.02;84.03;101524.91;8684301;33;1112449;-74
2021/11/09 05:44:26;;;;;;;29.38;12.98;;;;;;;5.95;84.15;101525.19;8718721;33;20156;-74
2021/11/09 05:49:29;;;;;;;30.25;14.13;;;;;;;5.89;84.15;101522.75;8719271;33;20183;-74
2021/11/09 05:54:33;;;;;;;30.45;12.32;;;;;;;5.84;84.17;101532.78;8717263;33;20187;-74
2021/11/09 05:59:37;;;;;;;25.67;12.95;;;;;;;5.76;84.44;101536.69;8717375;33;20672;-74
2021/11/09 06:04:41;;;;;;;32.72;13.35;;;;;;;5.73;84.57;101543.03;8717296;33;20183;-76
2021/11/09 06:09:44;;;;;;;28.10;13.45;;;;;;;5.75;84.85;101541.16;8716636;33;20274;-74
2021/11/09 06:14:48;;;;;;;28.67;13.13;;;;;;;5.72;84.72;101546.63;8717440;33;20156;-74
2021/11/09 06:19:51;;;;;;;28.05;12.80;;;;;;;5.68;85.01;101543.25;8718230;33;20590;-75
2021/11/09 06:24:54;;;;;;;20.95;11.55;;;;;;;5.66;85.36;101547.75;8717170;33;20268;-73
2021/11/09 06:29:59;;;;;;;28.17;14.02;;;;;;;5.62;85.55;101548.84;8717008;33;20692;-75
2021/11/09 06:35:03;;;;;;;30.08;12.43;;;;;;;5.58;85.61;101563.22;8716963;33;20215;-74
2021/11/09 06:40:09;;;;;;;26.83;13.52;;;;;;;5.60;85.89;101569.34;8716647;33;20253;-74
2021/11/09 06:45:14;;;;;;;29.20;12.65;;;;;;;5.59;86.12;101588.06;8716372;33;21399;-74
2021/11/09 06:50:17;;;;;;;22.52;11.50;;;;;;;5.59;86.21;101593.38;8692057;33;20191;-74
2021/11/09 06:55:20;;;;;;;30.40;13.88;;;;;;;5.56;85.73;101596.19;8716382;33;20214;-74
2021/11/09 07:00:25;;;;;;;26.27;12.73;;;;;;;5.58;86.18;101591.66;8716973;33;20416;-74
2021/11/09 07:05:28;;;;;;;24.50;12.15;;;;;;;5.52;86.31;101599.91;8716208;33;20195;-73
2021/11/09 07:10:31;;;;;;;27.95;12.68;;;;;;;5.55;86.48;101607.78;8716519;33;20243;-74
2021/11/09 07:15:36;;;;;;;34.35;13.93;;;;;;;5.59;86.39;101607.56;8715359;33;20160;-75
2021/11/09 07:20:39;;;;;;;26.48;14.25;;;;;;;5.71;86.69;101624.91;8715888;33;20187;-74
2021/11/09 07:25:42;;;;;;;28.10;15.20;;;;;;;5.87;86.23;101635.78;8714891;33;20191;-74
2021/11/09 07:30:56;;;;;;;28.23;14.40;;;;;;;6.15;86.97;101632.84;8690953;33;21689;-74
2021/11/09 07:35:59;;;;;;;25.08;13.18;;;;;;;6.25;85.77;101635.97;8715413;33;20458;-73
2021/11/09 07:41:03;;;;;;;31.73;13.50;;;;;;;6.45;86.75;101640.47;8715181;33;21827;-74
2021/11/09 07:46:07;;;;;;;30.75;15.07;;;;;;;7.05;86.50;101638.66;8714253;33;20236;-74
2021/11/09 07:51:10;;;;;;;33.53;15.48;;;;;;;7.14;84.88;101648.06;8715092;33;20184;-74
2021/11/09 07:56:17;;;;;;;26.48;13.40;;;;;;;7.41;83.46;101653.91;8713976;33;20971;-75
2021/11/09 08:01:30;;;;;;;24.20;12.38;;;;;;;7.66;84.35;101662.47;8689664;33;20249;-74
2021/11/09 08:06:44;;;;;;;19.70;10.00;;;;;;;8.25;83.44;101655.06;8715136;33;20244;-74
2021/11/09 08:11:47;;;;;;;26.35;10.60;;;;;;;8.68;81.89;101652.88;8715106;33;20639;-74
2021/11/09 08:16:53;;;;;;;26.40;12.20;;;;;;;8.88;79.37;101640.22;8715284;33;20588;-74
2021/11/09 08:21:58;;;;;;;20.65;10.45;;;;;;;9.14;76.79;101636.13;8715633;33;20909;-74
2021/11/09 08:27:04;;;;;;;21.95;9.82;;;;;;;9.20;74.95;101633.97;8714691;33;22010;-74
2021/11/09 08:32:11;;;;;;;22.30;9.82;;;;;;;9.37;75.28;101629.47;8677919;33;20474;-74
2021/11/09 08:37:15;;;;;;;18.40;9.25;;;;;;;9.33;74.04;101635.97;8718340;33;20441;-74
2021/11/09 08:42:23;;;;;;;24.60;11.05;;;;;;;9.76;76.04;101626.31;8694346;33;20694;-75
2021/11/09 08:47:31;;;;;;;19.58;8.60;;;;;;;9.91;70.08;101646.09;8719409;33;20199;-74
2021/11/09 08:52:35;;;;;;;15.32;8.40;;;;;;;9.94;72.04;101643.22;8719741;33;20195;-74
2021/11/09 09:08:21;;;;;;;11.25;7.28;;;;;;;10.32;65.64;101651.69;8718330;33;20286;-74
2021/11/09 09:13:24;;;;;;;14.35;7.50;;;;;;;10.73;67.64;101648.31;8705675;33;20266;-75
2021/11/09 09:18:28;;;;;;;19.48;7.88;;;;;;;11.10;66.94;101640.63;8718301;33;20218;-74
2021/11/09 09:23:33;;;;;;;9.27;6.07;;;;;;;10.80;64.44;101648.78;8718607;33;20183;-74
2021/11/09 09:29:05;;;;;;;8.98;5.40;;;;;;;10.79;62.53;101645.25;8718304;33;20704;-76
2021/11/09 09:55:47;;;;;;;15.00;4.65;;;;;;;10.90;57.33;101666.06;8717140;33;20148;-73
2021/11/09 10:00:50;;;;;;;8.95;5.22;;;;;;;11.15;58.04;101664.56;8717877;33;20211;-75
2021/11/09 10:06:02;;;;;;;10.77;5.38;;;;;;;10.63;56.85;101668.63;8692565;33;20468;-75
2021/11/09 10:11:05;;;;;;;14.10;5.43;;;;;;;11.08;61.44;101658.69;8718245;33;20322;-74
2021/11/09 10:16:16;;;;;;;6.80;4.57;;;;;;;11.25;56.56;101658.53;8717678;33;20191;-73
2021/11/09 10:21:21;;;;;;;7.85;5.22;;;;;;;11.94;59.60;101658.53;8717501;33;20218;-73
2021/11/09 10:26:27;;;;;;;7.93;5.05;;;;;;;12.29;60.17;101658.88;8716631;33;20248;-74
2021/11/09 10:31:30;;;;;;;9.65;5.38;;;;;;;12.82;55.33;101650.72;8717251;33;20187;-74
2021/11/09 10:36:34;;;;;;;10.57;5.53;;;;;;;12.98;53.74;101650.53;8730941;33;20258;-74
2021/11/09 10:41:43;;;;;;;7.85;5.30;;;;;;;12.85;52.56;101653.22;8732469;33;20477;-74
2021/11/09 10:46:46;;;;;;;7.10;4.38;;;;;;;12.89;54.54;101643.94;8717725;33;20148;-74
2021/11/09 10:51:58;;;;;;;7.90;4.80;;;;;;;12.50;52.20;101634.97;8692371;33;20245;-75
2021/11/09 10:57:16;;;;;;;10.38;4.50;;;;;;;12.31;54.48;101634.50;8690936;33;20602;-73
2021/11/09 11:07:55;;;;;;;8.30;4.55;;;;;;;13.30;52.18;101631.13;8716658;33;20187;-74
2021/11/09 11:13:20;;;;;;;11.02;4.60;;;;;;;14.60;49.61;101624.03;8715588;33;20201;-74
2021/11/09 11:18:33;;;;;;;7.40;4.47;;;;;;;13.82;50.64;101616.50;8716047;33;20128;-74
2021/11/09 11:23:39;;;;;;;9.23;4.20;;;;;;;15.72;49.53;101606.00;8715441;33;20183;-74
2021/11/09 11:28:47;;;;;;;7.78;4.28;;;;;;;16.14;45.05;101604.22;8691027;33;20239;-75
2021/11/09 11:33:51;;;;;;;9.63;4.50;;;;;;;15.45;46.21;101600.03;8716441;33;20535;-75
2021/11/09 11:39:00;;;;;;;7.25;4.05;;;;;;;15.58;44.53;101599.03;8716258;33;20203;-74
2021/11/09 11:44:07;;;;;;;5.72;3.95;;;;;;;16.39;45.38;101594.00;8715369;33;20197;-75
2021/11/09 11:49:17;;;;;;;7.38;3.78;;;;;;;15.01;43.96;101592.81;8715022;33;20191;-75
2021/11/09 11:54:42;;;;;;;6.03;3.53;;;;;;;15.21;43.15;101593.91;8714935;33;20168;-74
2021/11/09 11:59:45;;;;;;;3.45;3.08;;;;;;;15.88;41.92;101584.78;8715175;33;20191;-74
2021/11/09 12:04:55;;;;;;;5.30;3.08;;;;;;;15.16;41.96;101571.75;8678843;33;20274;-74
2021/11/09 12:10:10;;;;;;;7.43;3.08;;;;;;;15.05;42.28;101587.00;8718212;33;20253;-73
2021/11/09 12:15:13;;;;;;;4.75;2.97;;;;;;;14.93;40.62;101577.19;8695943;33;20186;-74
2021/11/09 12:20:17;;;;;;;7.38;3.83;;;;;;;15.52;41.20;101570.59;8721321;33;20548;-73
2021/11/09 12:30:54;;;;;;;9.90;3.92;;;;;;;16.86;39.11;101554.53;8660182;32;21390;-75
2021/11/09 12:36:24;;;;;;;5.20;3.03;;;;;;;16.86;39.59;101554.53;8567418;33;20173;-75
2021/11/09 12:41:29;;;;;;;6.95;3.75;;;;;;;16.22;39.78;101552.06;8567886;33;20775;-75
2021/11/09 12:46:37;;;;;;;3.95;3.10;;;;;;;16.19;38.34;101553.19;8567212;33;20149;-73
2021/11/09 12:51:44;;;;;;;6.53;3.20;;;;;;;15.78;40.33;101551.31;8567419;33;20706;-74
2021/11/09 12:56:51;;;;;;;8.05;3.80;;;;;;;15.38;40.63;101550.06;8565698;33;20479;-74
2021/11/09 13:02:08;;;;;;;5.28;3.28;;;;;;;15.30;41.19;101538.13;8567170;33;20701;-75
2021/11/09 13:07:18;;;;;;;8.57;3.30;;;;;;;15.29;41.72;101540.00;8566675;33;21702;-75
2021/11/09 13:12:25;;;;;;;6.40;2.95;;;;;;;15.03;41.11;101534.03;8567357;33;20181;-74
2021/11/09 13:17:40;;;;;;;6.80;3.30;;;;;;;15.44;41.19;101522.50;8566925;33;20192;-75
2021/11/09 13:22:51;;;;;;;8.15;3.70;;;;;;;15.79;40.34;101523.22;8567497;33;20773;-75
2021/11/09 13:27:57;;;;;;;7.13;3.22;;;;;;;15.65;40.78;101519.81;8566540;33;20568;-75
2021/11/09 13:33:25;;;;;;;5.55;3.08;;;;;;;16.00;39.60;101520.53;8566817;33;20193;-75
2021/11/09 13:38:33;;;;;;;7.10;3.60;;;;;;;15.76;40.32;101513.50;8561536;33;20284;-75
2021/11/09 13:43:40;;;;;;;7.22;3.58;;;;;;;15.68;40.31;101518.72;8547316;33;20193;-74
2021/11/09 13:48:50;;;;;;;6.28;2.97;;;;;;;15.84;40.11;101524.53;8547738;33;20208;-75
2021/11/09 13:53:58;;;;;;;6.15;2.85;;;;;;;15.60;40.25;101515.78;8547188;33;20743;-76
2021/11/09 13:59:07;;;;;;;5.15;2.72;;;;;;;14.30;42.59;101516.44;8546230;33;20196;-75
2021/11/09 14:04:54;;;;;;;4.88;3.03;;;;;;;14.96;42.04;101511.16;8547165;33;20526;-75
2021/11/09 14:10:34;;;;;;;3.42;2.22;;;;;;;14.87;41.09;101511.94;8547963;33;20188;-74
2021/11/09 14:15:46;;;;;;;4.82;2.50;;;;;;;14.75;40.88;101514.63;8547735;33;20646;-75
2021/11/09 14:20:57;;;;;;;4.20;2.60;;;;;;;14.53;41.63;101509.22;8547705;33;20236;-74
2021/11/09 14:26:17;;;;;;;4.38;2.22;;;;;;;14.37;41.83;101510.44;8546877;33;20243;-74
2021/11/09 14:31:25;;;;;;;6.10;2.28;;;;;;;14.21;41.52;101504.50;8547068;33;21797;-75
2021/11/09 14:36:35;;;;;;;4.32;2.20;;;;;;;14.16;42.23;101512.13;8546581;33;20649;-75
2021/11/09 14:42:11;;;;;;;4.03;2.33;;;;;;;14.20;42.38;101510.03;8546808;33;20220;-75
2021/11/09 14:47:18;;;;;;;3.13;2.22;;;;;;;13.96;42.68;101505.59;8546656;33;20593;-75
2021/11/09 14:52:23;;;;;;;4.38;2.03;;;;;;;13.65;43.33;101507.91;8545492;33;20240;-74
2021/11/09 14:57:33;;;;;;;3.88;2.20;;;;;;;13.79;43.62;101501.47;8544797;33;20479;-74
2021/11/09 15:02:36;;;;;;;4.68;2.60;;;;;;;13.74;43.70;101495.56;8550286;33;20194;-74
2021/11/09 15:07:55;;;;;;;4.63;2.40;;;;;;;13.22;44.43;101496.81;8549526;33;20588;-76
2021/11/09 15:13:04;;;;;;;3.90;2.00;;;;;;;12.64;45.69;101503.75;8550618;33;20235;-74
2021/11/09 15:28:58;;;;;;;5.25;3.00;;;;;;;11.47;49.16;101485.78;8549912;33;20300;-74
2021/11/09 15:34:13;;;;;;;5.75;3.50;;;;;;;11.32;49.77;101480.56;8548147;33;20162;-74
2021/11/09 15:39:20;;;;;;;4.65;3.35;;;;;;;11.16;50.42;101488.78;8547969;33;20182;-74
2021/11/09 15:44:24;;;;;;;6.45;3.35;;;;;;;11.03;50.74;101486.03;8546867;33;21418;-75
2021/11/09 15:49:29;;;;;;;7.05;2.83;;;;;;;10.88;50.96;101478.97;8548387;33;20190;-75
2021/11/09 15:54:33;;;;;;;5.47;4.07;;;;;;;10.80;51.62;101484.81;8547608;33;20197;-74
2021/11/09 15:59:36;;;;;;;6.90;4.00;;;;;;;10.63;52.29;101485.91;8549039;33;20486;-73
2021/11/09 16:04:42;;;;;;;7.63;4.00;;;;;;;10.50;52.88;101484.97;8559361;33;20284;-74
2021/11/09 16:09:49;;;;;;;5.63;3.40;;;;;;;10.29;53.75;101488.06;8557771;33;20336;-74
2021/11/09 16:14:53;;;;;;;6.68;4.78;;;;;;;10.05;54.69;101494.94;8548305;33;20211;-75
2021/11/09 16:19:57;;;;;;;5.88;3.90;;;;;;;9.91;55.20;101496.63;8548593;33;20263;-75
2021/11/09 16:25:02;;;;;;;10.93;5.00;;;;;;;9.75;55.72;101495.81;8548209;33;20638;-74
2021/11/09 16:30:16;;;;;;;10.63;5.55;;;;;;;9.60;56.29;101496.69;8549415;33;20445;-74
2021/11/09 16:35:26;;;;;;;7.40;4.88;;;;;;;9.47;56.86;101500.13;8547147;33;20604;-74
2021/11/09 16:40:35;;;;;;;7.53;4.30;;;;;;;9.37;57.10;101492.72;8548722;33;20181;-76
2021/11/09 16:45:45;;;;;;;9.73;5.00;;;;;;;9.28;57.58;101508.38;8548172;33;20464;-74
2021/11/09 16:51:09;;;;;;;6.57;3.95;;;;;;;9.20;57.85;101501.72;8542997;33;20269;-74
2021/11/09 16:56:35;;;;;;;8.02;3.92;;;;;;;9.11;58.14;101500.44;8544903;33;21498;-75
2021/11/09 17:01:51;;;;;;;5.28;3.97;;;;;;;8.99;58.17;101512.72;8544787;33;20700;-74
2021/11/09 18:21:52;;;;;;;5.82;3.97;;;;;;;8.18;60.12;101549.28;8560505;33;20729;-73
2021/11/09 18:26:55;;;;;;;9.18;4.72;;;;;;;8.17;59.93;101537.72;8604300;33;21444;-74
2021/11/09 18:32:00;;;;;;;7.28;5.28;;;;;;;8.11;60.03;101543.34;8605486;33;20280;-74
2021/11/09 18:37:04;;;;;;;8.10;4.35;;;;;;;8.09;60.05;101539.03;8604649;33;20319;-75
2021/11/09 18:42:08;;;;;;;10.35;3.97;;;;;;;7.99;60.09;101544.00;8604422;33;20434;-75
2021/11/09 18:47:13;;;;;;;6.50;4.40;;;;;;;7.97;60.19;101540.53;8604734;33;20457;-74
2021/11/09 18:52:16;;;;;;;7.68;4.45;;;;;;;7.91;60.39;101535.50;8605076;33;20631;-74
2021/11/09 18:57:19;;;;;;;7.73;4.43;;;;;;;7.92;60.39;101527.38;8602234;33;20440;-75
2021/11/09 19:02:28;;;;;;;8.30;4.15;;;;;;;7.89;60.57;101524.88;8603703;33;20434;-74
2021/11/09 19:07:31;;;;;;;9.65;4.82;;;;;;;7.89;60.51;101522.19;8605150;33;20485;-76
2021/11/09 19:12:37;;;;;;;10.52;4.63;;;;;;;7.88;60.52;101519.63;8603573;33;20137;-74
2021/11/09 19:17:42;;;;;;;13.57;6.20;;;;;;;7.83;61.12;101524.34;8603343;33;20209;-75
2021/11/09 19:22:45;;;;;;;19.25;10.35;;;;;;;7.78;61.13;101513.88;8604259;33;21471;-74
2021/11/09 19:27:50;;;;;;;36.70;18.55;;;;;;;7.63;61.05;101512.00;8603131;33;20181;-73
2021/11/09 19:32:55;;;;;;;23.58;12.13;;;;;;;7.54;61.55;101507.94;8603753;33;20138;-72
2021/11/09 19:37:59;;;;;;;13.85;7.95;;;;;;;7.49;62.01;101497.50;8603169;33;20192;-75
2021/11/09 19:43:03;;;;;;;11.80;7.95;;;;;;;7.44;62.42;101496.00;8580919;33;20678;-73
2021/11/09 19:48:08;;;;;;;13.57;6.88;;;;;;;7.36;62.94;101490.19;8598041;33;21577;-73
2021/11/09 19:53:11;;;;;;;11.68;6.60;;;;;;;7.33;63.15;101487.66;8601486;33;20185;-75
2021/11/09 19:58:24;;;;;;;16.10;7.10;;;;;;;7.27;63.65;101483.50;8600413;33;20185;-74
2021/11/09 20:03:29;;;;;;;12.57;7.10;;;;;;;7.27;63.42;101476.34;8598542;33;20681;-75
2021/11/09 20:08:32;;;;;;;12.75;6.80;;;;;;;6.98;63.96;101475.09;8601388;33;20197;-74
2021/11/09 20:13:37;;;;;;;12.02;6.78;;;;;;;6.75;64.87;101481.53;8600616;33;20307;-75
2021/11/09 20:18:43;;;;;;;12.30;6.43;;;;;;;6.71;65.19;101481.72;8600643;33;20413;-74
2021/11/09 20:23:47;;;;;;;12.27;7.35;;;;;;;6.74;65.16;101478.91;8593825;33;20189;-74
2021/11/09 20:28:51;;;;;;;13.13;7.95;;;;;;;6.75;65.49;101494.00;8600453;33;20203;-74
2021/11/09 20:33:56;;;;;;;18.60;8.02;;;;;;;6.75;65.05;101486.84;8602005;33;20245;-73
2021/11/09 20:38:59;;;;;;;14.38;7.22;;;;;;;6.77;64.98;101474.28;8601878;33;20256;-73
2021/11/09 20:44:02;;;;;;;9.90;6.32;;;;;;;6.80;64.69;101462.56;8601706;33;20720;-74
2021/11/09 20:49:07;;;;;;;9.45;6.10;;;;;;;6.89;64.61;101472.00;8600898;33;20520;-73
2021/11/09 20:54:10;;;;;;;12.23;7.40;;;;;;;6.94;64.37;101472.63;8605797;33;20181;-73
2021/11/09 20:59:13;;;;;;;11.73;6.65;;;;;;;6.92;64.29;101471.88;8594408;33;20195;-73
2021/11/09 21:04:18;;;;;;;11.90;6.60;;;;;;;6.76;64.46;101483.22;8605468;33;20758;-74
2021/11/09 21:09:23;;;;;;;12.05;7.00;;;;;;;6.62;64.81;101480.34;8603741;33;20230;-74
2021/11/09 21:19:48;;;;;;;14.85;6.18;;;;;;;6.51;65.36;101474.66;8605045;33;20946;-73
2021/11/09 21:24:51;;;;;;;14.77;6.60;;;;;;;6.38;65.78;101480.56;8605047;33;20621;-73
2021/11/09 21:35:19;;;;;;;12.27;6.97;;;;;;;6.18;66.32;101488.63;8580556;33;20189;-72
2021/11/09 21:40:27;;;;;;;13.35;6.70;;;;;;;6.16;66.55;101480.66;8605205;33;21936;-73
2021/11/09 21:45:32;;;;;;;11.55;6.90;;;;;;;6.06;66.80;101479.38;8605697;33;20478;-73
2021/11/09 21:50:37;;;;;;;15.65;8.10;;;;;;;6.01;67.31;101477.84;8615264;33;20205;-73
2021/11/09 21:55:41;;;;;;;10.40;7.95;;;;;;;5.97;67.34;101468.22;8608737;33;20708;-73
2021/11/09 22:00:45;;;;;;;12.30;8.20;;;;;;;5.93;67.42;101465.69;8603419;33;20181;-72
2021/11/09 22:05:49;;;;;;;12.35;7.82;;;;;;;5.83;67.74;101472.38;8604705;33;20191;-73
2021/11/09 22:10:53;;;;;;;14.70;7.97;;;;;;;5.68;68.25;101478.38;8602496;33;20157;-73
2021/11/09 22:15:57;;;;;;;14.43;9.05;;;;;;;5.60;68.35;101486.72;8603978;33;20200;-74
2021/11/09 22:21:02;;;;;;;17.20;9.95;;;;;;;5.48;69.13;101493.41;8605870;33;20196;-72
2021/11/09 22:26:05;;;;;;;12.88;8.30;;;;;;;5.37;69.18;101487.66;8603667;33;20239;-74
2021/11/09 22:31:08;;;;;;;14.73;8.77;;;;;;;5.22;69.46;101488.31;8603972;33;20189;-74
2021/11/09 22:36:13;;;;;;;18.15;9.15;;;;;;;5.10;70.01;101480.81;8602981;33;20149;-73
2021/11/09 22:41:16;;;;;;;12.02;8.70;;;;;;;5.08;70.07;101496.00;8603236;33;20196;-74
2021/11/09 22:46:21;;;;;;;16.45;9.50;;;;;;;4.91;70.37;101486.88;8602862;33;20223;-73
2021/11/09 22:51:26;;;;;;;16.75;8.45;;;;;;;4.82;70.81;101497.88;8603291;33;20860;-73
2021/11/09 22:56:29;;;;;;;14.52;8.52;;;;;;;4.70;71.21;101499.22;8602341;33;20259;-73
2021/11/09 23:01:32;;;;;;;15.00;8.85;;;;;;;4.67;71.58;101495.81;8602971;33;20200;-73
2021/11/09 23:06:37;;;;;;;13.70;8.25;;;;;;;4.77;71.42;101500.72;8602908;33;20142;-73
2021/11/09 23:11:40;;;;;;;14.48;9.13;;;;;;;4.61;71.20;101497.78;8601910;33;20149;-74
2021/11/09 23:16:43;;;;;;;14.98;8.80;;;;;;;4.63;71.93;101495.03;8602483;33;20556;-73
2021/11/09 23:21:47;;;;;;;13.90;7.63;;;;;;;4.80;71.83;101492.63;8602502;33;21003;-73
2021/11/09 23:26:50;;;;;;;14.95;8.52;;;;;;;4.82;71.01;101471.25;8602102;33;20157;-74
2021/11/09 23:31:53;;;;;;;13.43;8.35;;;;;;;4.65;70.87;101492.34;8602291;33;20174;-73
2021/11/09 23:36:58;;;;;;;11.93;8.75;;;;;;;4.44;71.17;101489.56;8601670;33;20138;-74
2021/11/09 23:42:01;;;;;;;12.88;8.55;;;;;;;4.43;71.62;101484.31;8602211;33;20350;-73
2021/11/09 23:47:05;;;;;;;13.98;9.32;;;;;;;4.34;71.91;101488.19;8602108;33;20570;-73
2021/11/09 23:52:09;;;;;;;16.67;8.70;;;;;;;4.35;72.30;101488.13;8601915;33;20223;-73
2021/11/09 23:57:13;;;;;;;14.57;8.52;;;;;;;4.36;71.98;101486.31;8600266;33;20199;-73
